Terminal Aerodrome Forecast
Issued by NWS

Home | Current Version | Previous Version | Text Only | Print | Product List | Glossary On
Versions: 1 2 3 4 5 6 7 8 9 10 11 12 13 14 15 16 17 18
000
FTUS41 KPBZ 292300
TAFBVI
TAF
KBVI 292337Z 3000/3024 23010KT 3SM -SHRA BR OVC005
     FM300100 27012G24KT 2SM -SHSN OVC005
     FM300900 31012G24KT 3SM -SHSN OVC010
     FM301500 31012G24KT P6SM OVC015
      AMD NOT SKED 3002/3012=

USA.gov is the U.S. government's official web portal to all federal, state and local government web resources and services.